createdAt,value
2023-05-14T00:00:47.828Z,7.13
2023-05-14T00:03:14.630Z,7.40
2023-05-14T00:05:41.418Z,6.27
2023-05-14T00:08:08.168Z,6.77
2023-05-14T00:10:34.914Z,6.93
2023-05-14T00:13:01.632Z,6.30
2023-05-14T00:15:28.775Z,7.33
2023-05-14T00:17:55.533Z,7.03
2023-05-14T00:20:22.270Z,6.43
2023-05-14T00:22:48.980Z,7.53
2023-05-14T00:25:15.651Z,6.60
2023-05-14T00:27:42.267Z,7.10
2023-05-14T00:30:09.191Z,6.80
2023-05-14T00:32:35.871Z,7.13
2023-05-14T00:35:04.253Z,7.47
2023-05-14T00:37:30.999Z,7.00
2023-05-14T00:39:58.267Z,5.97
2023-05-14T00:42:25.058Z,6.57
2023-05-14T00:44:51.647Z,6.70
2023-05-14T00:47:18.693Z,6.40
2023-05-14T00:49:45.694Z,6.50
2023-05-14T00:52:15.106Z,7.30
2023-05-14T00:54:42.060Z,6.77
2023-05-14T00:57:09.019Z,6.83
2023-05-14T00:59:35.851Z,7.40
2023-05-14T01:02:02.543Z,7.30
2023-05-14T01:04:29.675Z,5.90
2023-05-14T01:07:16.658Z,6.40
2023-05-14T01:09:54.838Z,6.57
2023-05-14T01:12:32.810Z,6.73
2023-05-14T01:15:10.867Z,7.23
2023-05-14T01:17:43.428Z,7.50
2023-05-14T01:20:11.029Z,6.60
2023-05-14T01:22:38.223Z,7.33
2023-05-14T01:25:06.103Z,7.30
2023-05-14T01:27:49.792Z,7.30
2023-05-14T01:30:31.782Z,6.87
2023-05-14T01:33:02.928Z,7.40
2023-05-14T01:35:30.428Z,6.97
2023-05-14T01:38:00.624Z,6.87
2023-05-14T01:40:28.186Z,6.73
2023-05-14T01:42:55.245Z,7.37
2023-05-14T01:45:24.968Z,6.17
2023-05-14T01:47:51.760Z,7.70
2023-05-14T01:50:18.601Z,7.17
2023-05-14T01:52:45.254Z,6.40
2023-05-14T01:55:12.005Z,6.57
2023-05-14T01:57:38.643Z,7.03
2023-05-14T02:00:06.061Z,7.60
2023-05-14T02:02:40.900Z,7.37
2023-05-14T02:05:10.652Z,7.33
2023-05-14T02:07:37.329Z,7.10
2023-05-14T02:10:04.420Z,7.87
2023-05-14T02:12:31.148Z,7.30
2023-05-14T02:14:57.819Z,6.57
2023-05-14T02:17:26.046Z,7.57
2023-05-14T02:19:52.919Z,7.17
2023-05-14T02:22:19.559Z,7.70
2023-05-14T02:24:46.230Z,7.30
2023-05-14T02:27:13.253Z,7.10
2023-05-14T02:29:39.903Z,7.37
2023-05-14T02:32:06.841Z,7.13
2023-05-14T02:34:34.388Z,7.80
2023-05-14T02:37:01.319Z,6.90
2023-05-14T02:39:27.909Z,6.93
2023-05-14T02:41:54.648Z,7.97
2023-05-14T02:44:21.365Z,6.70
2023-05-14T02:46:48.146Z,7.67
2023-05-14T02:49:14.825Z,7.97
2023-05-14T02:51:41.420Z,7.47
2023-05-14T02:54:08.187Z,8.00
2023-05-14T02:56:34.769Z,8.10
2023-05-14T02:59:01.400Z,8.07
2023-05-14T03:01:28.568Z,7.70
2023-05-14T03:03:55.796Z,7.87
2023-05-14T03:06:22.471Z,8.17
2023-05-14T03:08:49.100Z,8.00
2023-05-14T03:11:15.852Z,9.00
2023-05-14T03:13:42.450Z,7.40
2023-05-14T03:16:09.426Z,8.03
2023-05-14T03:18:36.822Z,8.50
2023-05-14T03:21:03.918Z,7.73
2023-05-14T03:23:31.942Z,7.97
2023-05-14T03:25:58.759Z,7.80
2023-05-14T03:28:25.948Z,7.90
2023-05-14T03:30:52.796Z,7.90
2023-05-14T03:33:19.623Z,8.10
2023-05-14T03:35:46.192Z,8.27
2023-05-14T03:38:12.798Z,7.83
2023-05-14T03:40:39.510Z,8.30
2023-05-14T03:43:06.150Z,7.17
2023-05-14T03:45:33.812Z,7.60
2023-05-14T03:48:00.466Z,7.73
2023-05-14T03:50:27.466Z,8.20
2023-05-14T03:52:54.901Z,7.97
2023-05-14T03:55:21.738Z,8.13
2023-05-14T03:57:49.043Z,7.70
2023-05-14T04:00:15.935Z,7.97
2023-05-14T04:02:45.566Z,7.87
2023-05-14T04:05:12.378Z,7.40
2023-05-14T04:07:38.970Z,8.13
2023-05-14T04:10:06.260Z,8.10
2023-05-14T04:12:35.254Z,8.57
2023-05-14T04:15:02.683Z,8.97
2023-05-14T04:17:29.332Z,8.23
2023-05-14T04:19:56.793Z,7.73
2023-05-14T04:22:24.228Z,7.60
2023-05-14T04:24:51.935Z,9.00
2023-05-14T04:27:22.134Z,8.10
2023-05-14T04:29:49.690Z,7.90
2023-05-14T04:32:16.486Z,8.07
2023-05-14T04:34:43.236Z,7.83
2023-05-14T04:37:09.985Z,8.20
2023-05-14T04:39:36.832Z,7.37
2023-05-14T04:42:03.721Z,7.70
2023-05-14T04:44:30.389Z,7.70
2023-05-14T04:46:57.117Z,8.13
2023-05-14T04:49:23.712Z,8.27
2023-05-14T04:51:50.659Z,7.93
2023-05-14T04:54:17.337Z,8.77
2023-05-14T04:56:44.012Z,7.83
2023-05-14T04:59:10.631Z,8.40
2023-05-14T05:01:37.429Z,8.20
2023-05-14T05:04:04.308Z,8.70
2023-05-14T05:06:31.547Z,8.63
2023-05-14T05:08:59.069Z,9.70
2023-05-14T05:11:27.214Z,9.47
2023-05-14T05:13:53.820Z,8.13
2023-05-14T05:16:20.497Z,8.20
2023-05-14T05:18:47.218Z,7.97
2023-05-14T05:21:13.831Z,9.10
2023-05-14T05:23:40.530Z,9.30
2023-05-14T05:26:07.242Z,8.80
2023-05-14T05:28:33.852Z,9.30
2023-05-14T05:31:00.542Z,8.70
2023-05-14T05:33:27.229Z,8.60
2023-05-14T05:35:53.878Z,8.10
2023-05-14T05:38:20.615Z,9.70
2023-05-14T05:40:47.932Z,9.37
2023-05-14T05:43:15.341Z,8.00
2023-05-14T05:45:42.008Z,8.47
2023-05-14T05:48:08.666Z,8.10
2023-05-14T05:50:35.375Z,7.63
2023-05-14T05:53:02.051Z,8.80
2023-05-14T05:55:29.631Z,9.33
2023-05-14T05:57:56.238Z,7.97
2023-05-14T06:00:23.924Z,7.27
2023-05-14T06:02:52.264Z,6.70
2023-05-14T06:05:19.493Z,6.97
2023-05-14T06:07:46.140Z,5.97
2023-05-14T06:10:12.760Z,5.90
2023-05-14T06:12:39.465Z,5.57
2023-05-14T06:15:06.855Z,6.90
2023-05-14T06:17:33.513Z,7.00
2023-05-14T06:20:00.274Z,6.47
2023-05-14T06:22:26.897Z,6.30
2023-05-14T06:24:53.530Z,5.73
2023-05-14T06:27:20.142Z,6.13
2023-05-14T06:29:46.730Z,5.90
2023-05-14T06:32:15.471Z,6.47
2023-05-14T06:34:42.542Z,5.70
2023-05-14T06:37:10.339Z,5.80
2023-05-14T06:39:37.667Z,5.73
2023-05-14T06:42:04.842Z,5.37
2023-05-14T06:44:31.650Z,4.80
2023-05-14T06:46:58.411Z,5.57
2023-05-14T06:49:25.133Z,5.50
2023-05-14T06:51:52.278Z,4.90
2023-05-14T06:54:20.311Z,5.20
2023-05-14T06:56:47.033Z,4.70
2023-05-14T06:59:13.648Z,5.40
2023-05-14T07:01:40.816Z,5.70
2023-05-14T07:04:07.886Z,5.70
2023-05-14T07:06:34.620Z,5.40
2023-05-14T07:09:02.012Z,4.63
2023-05-14T07:11:28.978Z,4.80
2023-05-14T07:13:55.783Z,5.40
2023-05-14T07:16:22.481Z,5.10
2023-05-14T07:18:49.147Z,5.57
2023-05-14T07:21:15.800Z,4.63
2023-05-14T07:23:42.375Z,5.47
2023-05-14T07:26:09.093Z,4.47
2023-05-14T07:28:35.709Z,4.93
2023-05-14T07:31:04.836Z,4.43
2023-05-14T07:33:31.545Z,5.17
2023-05-14T07:35:58.159Z,4.93
2023-05-14T07:38:24.813Z,5.20
2023-05-14T07:40:51.470Z,4.77
2023-05-14T07:43:18.080Z,5.00
2023-05-14T07:45:44.970Z,5.40
2023-05-14T07:48:11.830Z,4.97
2023-05-14T07:50:38.813Z,5.00
2023-05-14T07:53:05.402Z,5.17
2023-05-14T07:55:32.037Z,4.57
2023-05-14T07:57:58.608Z,5.00
2023-05-14T08:00:25.716Z,4.57
2023-05-14T08:02:52.875Z,4.70
2023-05-14T08:05:19.818Z,4.53
2023-05-14T08:07:46.471Z,4.50
2023-05-14T08:10:13.151Z,4.53
2023-05-14T08:12:39.916Z,3.90
2023-05-14T08:15:07.703Z,4.40
2023-05-14T08:17:34.377Z,4.63
2023-05-14T08:20:01.660Z,4.40
2023-05-14T08:22:28.259Z,4.27
2023-05-14T08:24:54.929Z,3.97
2023-05-14T08:27:21.502Z,4.43
2023-05-14T08:29:48.131Z,3.90
2023-05-14T08:32:22.939Z,4.60
2023-05-14T08:34:51.445Z,4.40
2023-05-14T08:37:18.126Z,4.67
2023-05-14T08:39:44.727Z,4.50
2023-05-14T08:42:13.184Z,3.70
2023-05-14T08:44:48.722Z,4.13
2023-05-14T08:47:17.714Z,3.90
2023-05-14T08:49:47.189Z,4.27
2023-05-14T08:52:15.931Z,4.50
2023-05-14T08:54:42.952Z,3.97
2023-05-14T08:57:10.915Z,4.63
2023-05-14T08:59:37.891Z,4.10
2023-05-14T09:02:06.700Z,3.80
2023-05-14T09:04:34.705Z,4.40
2023-05-14T09:07:02.652Z,4.00
2023-05-14T09:09:29.577Z,4.20
2023-05-14T09:11:56.189Z,4.47
2023-05-14T09:14:23.803Z,3.97
2023-05-14T09:16:51.646Z,3.87
2023-05-14T09:19:19.723Z,4.47
2023-05-14T09:21:47.606Z,4.60
2023-05-14T09:24:25.247Z,5.10
2023-05-14T09:26:56.667Z,4.60
2023-05-14T09:29:30.218Z,4.43
2023-05-14T09:31:58.179Z,4.27
2023-05-14T09:34:26.485Z,3.97
2023-05-14T09:37:02.963Z,4.20
2023-05-14T09:39:30.474Z,3.80
2023-05-14T09:41:57.413Z,4.13
2023-05-14T09:44:24.831Z,3.90
2023-05-14T09:46:52.659Z,3.97
2023-05-14T09:49:20.245Z,4.30
2023-05-14T09:51:48.170Z,4.60
2023-05-14T09:54:14.872Z,4.57
2023-05-14T09:56:42.800Z,4.87
2023-05-14T09:59:09.460Z,4.73
2023-05-14T10:01:37.530Z,4.97
2023-05-14T10:04:07.894Z,4.47
2023-05-14T10:06:38.001Z,4.80
2023-05-14T10:09:09.893Z,4.40
2023-05-14T10:11:38.851Z,4.73
2023-05-14T10:14:18.532Z,5.10
2023-05-14T10:16:49.509Z,5.33
2023-05-14T10:19:18.215Z,5.00
2023-05-14T10:21:49.023Z,4.97
2023-05-14T10:24:16.541Z,4.80
2023-05-14T10:26:43.367Z,5.10
2023-05-14T10:29:11.282Z,5.47
2023-05-14T10:31:53.549Z,5.00
2023-05-14T10:34:43.661Z,5.23
2023-05-14T10:37:13.929Z,4.97
2023-05-14T10:39:47.756Z,5.80
2023-05-14T10:42:18.045Z,5.53
2023-05-14T10:44:50.496Z,5.10
2023-05-14T10:47:17.970Z,6.03
2023-05-14T10:49:48.957Z,5.10
2023-05-14T10:52:19.479Z,5.07
2023-05-14T10:55:01.967Z,5.17
2023-05-14T10:57:31.554Z,4.80
2023-05-14T10:59:59.943Z,4.67
2023-05-14T11:02:33.595Z,4.90
2023-05-14T11:05:04.284Z,4.63
2023-05-14T11:07:35.908Z,5.40
2023-05-14T11:10:04.220Z,5.20
2023-05-14T11:12:31.249Z,4.50
2023-05-14T11:14:59.368Z,4.63
2023-05-14T11:17:27.289Z,5.63
2023-05-14T11:19:54.982Z,7.10
2023-05-14T11:22:22.411Z,6.87
2023-05-14T11:24:49.320Z,6.90
2023-05-14T11:27:17.185Z,7.17
2023-05-14T11:29:46.102Z,7.73
2023-05-14T11:32:14.043Z,7.00
2023-05-14T11:34:41.615Z,8.53
2023-05-14T11:37:09.958Z,8.20
2023-05-14T11:39:37.556Z,8.40
2023-05-14T11:42:09.481Z,8.30
2023-05-14T11:44:36.655Z,7.67
2023-05-14T11:47:04.926Z,7.60
2023-05-14T11:49:32.283Z,7.50
2023-05-14T11:52:03.501Z,7.80
2023-05-14T11:54:30.962Z,6.67
2023-05-14T11:56:58.865Z,6.43
2023-05-14T11:59:31.592Z,6.13
2023-05-14T12:01:59.011Z,6.17
2023-05-14T12:04:26.043Z,5.90
2023-05-14T12:06:53.240Z,5.93
2023-05-14T12:09:21.224Z,4.87
2023-05-14T12:11:48.948Z,4.50
2023-05-14T12:14:21.067Z,4.50
2023-05-14T12:16:48.810Z,4.23
2023-05-14T12:19:17.442Z,4.30
2023-05-14T12:21:45.234Z,3.70
2023-05-14T12:24:22.360Z,2.43
2023-05-14T12:26:50.582Z,2.47
2023-05-14T12:29:17.581Z,3.33
2023-05-14T12:31:49.032Z,3.13
2023-05-14T12:34:16.860Z,2.27
2023-05-14T12:36:43.846Z,2.20
2023-05-14T12:39:12.079Z,2.60
2023-05-14T12:41:38.716Z,2.63
2023-05-14T12:44:05.630Z,2.60
2023-05-14T12:46:33.960Z,2.90
2023-05-14T12:49:01.016Z,2.40
2023-05-14T12:51:27.645Z,2.63
2023-05-14T12:53:54.283Z,2.83
2023-05-14T12:56:21.444Z,2.83
2023-05-14T12:58:48.195Z,2.63
2023-05-14T13:01:15.067Z,2.60
2023-05-14T13:03:41.758Z,3.13
2023-05-14T13:06:08.477Z,2.60
2023-05-14T13:08:35.466Z,2.40
2023-05-14T13:11:02.158Z,2.97
2023-05-14T13:13:28.866Z,2.60
2023-05-14T13:15:55.562Z,2.53
2023-05-14T13:18:22.261Z,2.60
2023-05-14T13:20:49.094Z,3.00
2023-05-14T13:23:15.733Z,2.97
2023-05-14T13:25:42.365Z,3.37
2023-05-14T13:28:09.061Z,2.77
2023-05-14T13:30:35.916Z,2.43
2023-05-14T13:33:02.669Z,2.83
2023-05-14T13:35:29.426Z,2.20
2023-05-14T13:37:56.023Z,2.63
2023-05-14T13:40:22.744Z,2.60
2023-05-14T13:42:49.371Z,2.70
2023-05-14T13:45:16.013Z,2.40
2023-05-14T13:47:42.648Z,2.83
2023-05-14T13:50:09.504Z,2.23
2023-05-14T13:52:36.458Z,2.33
2023-05-14T13:55:03.246Z,2.53
2023-05-14T13:57:29.859Z,2.60
2023-05-14T13:59:56.484Z,2.47
2023-05-14T14:02:23.126Z,3.10
2023-05-14T14:04:49.837Z,3.07
2023-05-14T14:07:16.475Z,2.63
2023-05-14T14:09:43.057Z,2.20
2023-05-14T14:12:10.168Z,2.70
2023-05-14T14:14:36.801Z,2.33
2023-05-14T14:17:03.486Z,2.37
2023-05-14T14:19:30.135Z,2.43
2023-05-14T14:21:56.815Z,2.63
2023-05-14T14:24:23.420Z,2.50
2023-05-14T14:26:50.026Z,1.87
2023-05-14T14:29:16.717Z,2.40
2023-05-14T14:31:43.529Z,2.00
2023-05-14T14:34:10.240Z,2.10
2023-05-14T14:36:36.867Z,2.27
2023-05-14T14:39:03.591Z,2.30
2023-05-14T14:41:30.246Z,2.00
2023-05-14T14:43:57.257Z,1.80
2023-05-14T14:46:23.959Z,2.07
2023-05-14T14:48:51.147Z,2.17
2023-05-14T14:51:17.899Z,1.87
2023-05-14T14:53:44.521Z,1.83
2023-05-14T14:56:11.168Z,2.33
2023-05-14T14:58:38.266Z,2.00
2023-05-14T15:01:05.250Z,1.60
2023-05-14T15:03:32.302Z,1.73
2023-05-14T15:05:59.094Z,1.90
2023-05-14T15:08:27.991Z,2.33
2023-05-14T15:10:59.211Z,2.10
2023-05-14T15:13:26.850Z,2.40
2023-05-14T15:15:53.555Z,2.90
2023-05-14T15:18:20.470Z,2.50
2023-05-14T15:20:47.131Z,1.90
2023-05-14T15:23:13.842Z,1.80
2023-05-14T15:25:40.510Z,2.30
2023-05-14T15:28:07.475Z,1.67
2023-05-14T15:30:34.398Z,1.33
2023-05-14T15:33:01.090Z,1.90
2023-05-14T15:35:27.972Z,1.60
2023-05-14T15:37:58.935Z,1.73
2023-05-14T15:40:27.249Z,1.73
2023-05-14T15:42:54.016Z,1.67
2023-05-14T15:45:20.809Z,1.40
2023-05-14T15:47:47.419Z,1.97
2023-05-14T15:50:14.233Z,1.47
2023-05-14T15:52:41.356Z,1.30
2023-05-14T15:55:08.454Z,1.77
2023-05-14T15:57:35.202Z,1.20
2023-05-14T16:00:07.311Z,1.63
2023-05-14T16:02:33.962Z,1.50
2023-05-14T16:05:00.685Z,1.40
2023-05-14T16:07:27.415Z,1.67
2023-05-14T16:09:54.102Z,1.83
2023-05-14T16:12:20.742Z,1.10
2023-05-14T16:14:47.470Z,1.30
2023-05-14T16:17:14.115Z,1.50
2023-05-14T16:19:40.912Z,1.30
2023-05-14T16:22:07.689Z,1.27
2023-05-14T16:24:34.317Z,1.70
2023-05-14T16:27:00.945Z,1.60
2023-05-14T16:29:27.912Z,1.20
2023-05-14T16:31:54.848Z,1.70
2023-05-14T16:34:21.557Z,1.47
2023-05-14T16:36:48.408Z,1.60
2023-05-14T16:39:15.080Z,1.10
2023-05-14T16:41:41.774Z,1.23
2023-05-14T16:44:08.487Z,1.60
2023-05-14T16:46:35.222Z,1.87
2023-05-14T16:49:04.599Z,1.37
2023-05-14T16:51:31.685Z,1.60
2023-05-14T16:53:58.390Z,1.73
2023-05-14T16:56:25.042Z,1.60
2023-05-14T16:58:51.750Z,1.80
2023-05-14T17:01:18.596Z,1.73
2023-05-14T17:03:45.650Z,1.60
2023-05-14T17:06:12.366Z,2.20
2023-05-14T17:08:38.969Z,1.60
2023-05-14T17:11:05.882Z,1.50
2023-05-14T17:13:33.001Z,1.43
2023-05-14T17:16:00.502Z,1.40
2023-05-14T17:18:27.303Z,1.80
2023-05-14T17:20:53.914Z,1.30
2023-05-14T17:23:20.611Z,1.43
2023-05-14T17:25:48.294Z,1.53
2023-05-14T17:28:15.002Z,1.70
2023-05-14T17:30:41.618Z,1.30
2023-05-14T17:33:08.456Z,1.30
2023-05-14T17:35:36.193Z,1.37
2023-05-14T17:38:03.311Z,1.53
2023-05-14T17:40:29.932Z,1.70
2023-05-14T17:42:56.565Z,1.33
2023-05-14T17:45:23.571Z,1.47
2023-05-14T17:47:51.448Z,1.53
2023-05-14T17:50:18.922Z,1.57
2023-05-14T17:52:46.067Z,1.57
2023-05-14T17:55:12.935Z,1.70
2023-05-14T17:57:39.692Z,1.43
2023-05-14T18:00:07.412Z,1.90
2023-05-14T18:02:37.511Z,1.80
2023-05-14T18:05:04.528Z,1.93
2023-05-14T18:07:31.329Z,1.90
2023-05-14T18:09:58.124Z,1.93
2023-05-14T18:12:26.529Z,2.03
2023-05-14T18:14:53.802Z,1.83
2023-05-14T18:17:20.716Z,2.07
2023-05-14T18:19:47.504Z,2.23
2023-05-14T18:22:15.347Z,2.20
2023-05-14T18:24:44.000Z,2.60
2023-05-14T18:27:11.021Z,4.37
2023-05-14T18:29:37.682Z,4.33
2023-05-14T18:32:04.884Z,4.47
2023-05-14T18:34:31.477Z,4.57
2023-05-14T18:36:58.352Z,3.73
2023-05-14T18:39:24.952Z,3.80
2023-05-14T18:41:51.959Z,3.03
2023-05-14T18:44:18.715Z,3.07
2023-05-14T18:46:45.584Z,4.70
2023-05-14T18:49:12.433Z,6.83
2023-05-14T18:51:39.040Z,8.30
2023-05-14T18:54:05.732Z,7.87
2023-05-14T18:56:32.355Z,9.10
2023-05-14T18:58:59.335Z,8.73
2023-05-14T19:01:26.109Z,8.77
2023-05-14T19:03:53.141Z,8.93
2023-05-14T19:06:20.090Z,7.67
2023-05-14T19:08:46.785Z,8.70
2023-05-14T19:11:13.522Z,9.13
2023-05-14T19:13:40.342Z,9.80
2023-05-14T19:16:07.161Z,8.10
2023-05-14T19:18:34.227Z,7.60
2023-05-14T19:21:00.927Z,8.93
2023-05-14T19:23:27.600Z,6.17
2023-05-14T19:25:54.284Z,6.13
2023-05-14T19:28:21.192Z,6.80
2023-05-14T19:30:50.560Z,4.97
2023-05-14T19:33:17.691Z,4.07
2023-05-14T19:35:44.504Z,3.40
2023-05-14T19:38:11.186Z,2.83
2023-05-14T19:40:38.004Z,2.40
2023-05-14T19:43:04.634Z,2.47
2023-05-14T19:45:31.365Z,2.27
2023-05-14T19:47:58.101Z,2.30
2023-05-14T19:50:24.784Z,2.40
2023-05-14T19:52:51.599Z,2.53
2023-05-14T19:55:18.411Z,2.60
2023-05-14T19:57:45.031Z,2.37
2023-05-14T20:00:12.036Z,3.20
2023-05-14T20:02:40.882Z,2.80
2023-05-14T20:05:11.441Z,2.90
2023-05-14T20:07:40.152Z,2.77
2023-05-14T20:10:07.699Z,3.03
2023-05-14T20:12:34.346Z,3.27
2023-05-14T20:15:01.007Z,3.17
2023-05-14T20:17:27.727Z,2.80
2023-05-14T20:19:54.358Z,2.43
2023-05-14T20:22:21.056Z,2.93
2023-05-14T20:24:47.712Z,2.63
2023-05-14T20:27:14.382Z,3.30
2023-05-14T20:29:41.106Z,2.67
2023-05-14T20:32:08.093Z,2.33
2023-05-14T20:34:34.737Z,3.17
2023-05-14T20:37:01.735Z,2.90
2023-05-14T20:39:28.316Z,2.53
2023-05-14T20:41:54.964Z,2.50
2023-05-14T20:44:21.690Z,2.97
2023-05-14T20:46:48.470Z,2.83
2023-05-14T20:49:15.274Z,3.07
2023-05-14T20:51:41.920Z,3.60
2023-05-14T20:54:08.549Z,2.90
2023-05-14T20:56:36.422Z,3.30
2023-05-14T20:59:03.067Z,3.27
2023-05-14T21:01:29.746Z,2.37
2023-05-14T21:03:56.516Z,3.03
2023-05-14T21:06:23.451Z,3.00
2023-05-14T21:08:50.073Z,2.80
2023-05-14T21:11:16.670Z,3.70
2023-05-14T21:13:44.398Z,2.90
2023-05-14T21:16:12.559Z,3.33
2023-05-14T21:18:39.260Z,3.50
2023-05-14T21:21:05.915Z,2.87
2023-05-14T21:23:32.527Z,2.63
2023-05-14T21:25:59.131Z,3.00
2023-05-14T21:28:25.768Z,4.13
2023-05-14T21:30:52.877Z,3.20
2023-05-14T21:33:19.577Z,3.67
2023-05-14T21:35:46.259Z,3.10
2023-05-14T21:38:12.893Z,3.23
2023-05-14T21:40:39.586Z,3.60
2023-05-14T21:43:06.500Z,3.40
2023-05-14T21:45:33.164Z,3.23
2023-05-14T21:47:59.882Z,3.73
2023-05-14T21:50:26.855Z,3.53
2023-05-14T21:52:53.475Z,3.67
2023-05-14T21:55:20.203Z,3.60
2023-05-14T21:57:46.876Z,3.43
2023-05-14T22:00:18.317Z,3.43
2023-05-14T22:02:45.043Z,3.40
2023-05-14T22:05:11.686Z,3.63
2023-05-14T22:07:38.302Z,3.30
2023-05-14T22:10:05.176Z,3.67
2023-05-14T22:12:32.073Z,3.27
2023-05-14T22:14:58.719Z,3.60
2023-05-14T22:17:26.563Z,3.60
2023-05-14T22:19:53.233Z,3.70
2023-05-14T22:22:19.818Z,3.63
2023-05-14T22:24:46.467Z,3.83
2023-05-14T22:27:13.089Z,3.83
2023-05-14T22:29:39.698Z,3.50
2023-05-14T22:32:08.017Z,3.30
2023-05-14T22:34:34.599Z,3.73
2023-05-14T22:37:01.280Z,3.60
2023-05-14T22:39:27.870Z,3.70
2023-05-14T22:41:55.117Z,3.60
2023-05-14T22:44:22.850Z,3.60
2023-05-14T22:46:49.938Z,3.80
2023-05-14T22:49:16.833Z,4.13
2023-05-14T22:51:43.678Z,3.57
2023-05-14T22:54:10.542Z,2.93
2023-05-14T22:56:37.806Z,4.30
2023-05-14T22:59:04.418Z,3.90
2023-05-14T23:01:31.749Z,3.53
2023-05-14T23:03:58.387Z,3.43
2023-05-14T23:06:25.435Z,4.00
2023-05-14T23:08:52.043Z,4.37
2023-05-14T23:11:19.074Z,3.43
2023-05-14T23:13:46.070Z,3.60
2023-05-14T23:16:12.744Z,4.00
2023-05-14T23:18:39.606Z,3.90
2023-05-14T23:21:06.387Z,3.73
2023-05-14T23:23:32.977Z,3.80
2023-05-14T23:25:59.810Z,3.97
2023-05-14T23:28:26.749Z,3.93
2023-05-14T23:30:53.390Z,4.17
2023-05-14T23:33:19.962Z,3.30
2023-05-14T23:35:46.641Z,4.00
2023-05-14T23:38:13.422Z,3.60
2023-05-14T23:40:40.091Z,4.10
2023-05-14T23:43:06.728Z,3.80
2023-05-14T23:45:33.625Z,3.90
2023-05-14T23:48:01.367Z,3.87
2023-05-14T23:50:28.084Z,4.10
2023-05-14T23:52:55.889Z,3.90
2023-05-14T23:55:22.852Z,3.80
2023-05-14T23:57:49.615Z,3.47
